Nepaug, Connecticut
Current Conditions -  °F | °C
As of 6:51 AM on Saturday 01 Nov 2014 (Local Time) from KBDL Reporting Station
Overcast Overcast  
Wind Chill: 39°   Ceiling: 7000
Heat Index: 45°   Visibility: 10mi
Dew Point: 32°   Wind: 12mph
Humidity: 60%   Direction: 360°N
Pressure: 29.9"   Gusts: NA
Location:  41.8531°N, 73.0043°W
Report Text: KBDL 011051Z 36010KT 10SM BKN070 OVC150 07/00 A2990 RMK AO2 SLP126 T00720000
Loading
Personal Weather Stations






























Interactive Weather Map
Tropical Storm Tracking
New forecast layout! Learn more

10-Day Weather Forecast

Advertisements
Track Severe Weather on mobile